createdAt,value
2018-02-17T00:01:37.713Z,15.87
2018-02-17T00:04:05.222Z,14.20
2018-02-17T00:06:32.703Z,14.97
2018-02-17T00:09:00.223Z,15.10
2018-02-17T00:11:28.497Z,13.30
2018-02-17T00:13:55.974Z,13.03
2018-02-17T00:16:24.213Z,14.47
2018-02-17T00:18:51.715Z,12.90
2018-02-17T00:21:19.198Z,13.93
2018-02-17T00:23:46.694Z,12.67
2018-02-17T00:26:14.164Z,12.70
2018-02-17T00:28:41.672Z,11.40
2018-02-17T00:31:09.682Z,12.73
2018-02-17T00:33:37.168Z,11.70
2018-02-17T00:36:05.454Z,12.10
2018-02-17T00:38:33.698Z,12.27
2018-02-17T00:41:01.178Z,12.13
2018-02-17T00:43:28.638Z,14.83
2018-02-17T00:45:56.123Z,11.30
2018-02-17T00:48:24.368Z,12.73
2018-02-17T00:50:51.886Z,13.00
2018-02-17T00:53:19.353Z,14.77
2018-02-17T00:55:46.839Z,13.33
2018-02-17T00:58:14.304Z,13.63
2018-02-17T01:00:41.804Z,13.13
2018-02-17T01:03:09.291Z,15.40
2018-02-17T01:05:36.774Z,13.30
2018-02-17T01:08:04.292Z,14.47
2018-02-17T01:10:31.756Z,20.10
2018-02-17T01:12:59.248Z,18.07
2018-02-17T01:15:26.754Z,17.63
2018-02-17T01:17:54.996Z,18.13
2018-02-17T01:20:22.456Z,15.37
2018-02-17T01:22:49.951Z,14.20
2018-02-17T01:25:18.192Z,14.20
2018-02-17T01:27:45.678Z,12.87
2018-02-17T01:30:14.101Z,13.27
2018-02-17T01:32:41.569Z,12.53
2018-02-17T01:35:09.160Z,14.00
2018-02-17T01:37:36.647Z,11.23
2018-02-17T01:40:04.899Z,15.23
2018-02-17T01:42:32.427Z,12.80
2018-02-17T01:44:59.910Z,13.00
2018-02-17T01:47:27.374Z,13.97
2018-02-17T01:49:55.398Z,13.87
2018-02-17T01:52:23.107Z,14.17
2018-02-17T01:54:51.185Z,14.40
2018-02-17T01:57:18.644Z,16.17
2018-02-17T01:59:46.129Z,13.43
2018-02-17T02:02:14.370Z,13.67
2018-02-17T02:04:43.358Z,15.30
2018-02-17T02:07:10.832Z,17.20
2018-02-17T02:09:38.328Z,14.30
2018-02-17T02:12:05.833Z,16.20
2018-02-17T02:14:33.321Z,15.37
2018-02-17T02:17:00.876Z,14.73
2018-02-17T02:19:28.353Z,14.83
2018-02-17T02:21:56.607Z,13.60
2018-02-17T02:24:24.097Z,16.83
2018-02-17T02:26:52.352Z,15.13
2018-02-17T02:29:19.815Z,13.60
2018-02-17T02:31:48.072Z,14.90
2018-02-17T02:34:15.550Z,13.90
2018-02-17T02:36:43.817Z,15.17
2018-02-17T02:39:11.282Z,15.13
2018-02-17T02:41:38.767Z,15.50
2018-02-17T02:44:07.031Z,15.23
2018-02-17T02:46:35.287Z,15.53
2018-02-17T02:49:03.884Z,15.27
2018-02-17T02:51:32.142Z,15.20
2018-02-17T02:54:01.129Z,15.63
2018-02-17T02:56:28.593Z,14.90
2018-02-17T02:58:56.983Z,15.53
2018-02-17T03:01:24.455Z,16.50
2018-02-17T03:03:52.720Z,16.20
2018-02-17T03:06:20.183Z,16.30
2018-02-17T03:08:48.437Z,18.50
2018-02-17T03:11:15.946Z,18.97
2018-02-17T03:13:44.960Z,17.17
2018-02-17T03:16:12.431Z,15.20
2018-02-17T03:18:39.917Z,16.70
2018-02-17T03:21:07.396Z,16.10
2018-02-17T03:23:35.652Z,14.10
2018-02-17T03:26:03.134Z,15.00
2018-02-17T03:28:31.420Z,17.17
2018-02-17T03:30:59.658Z,20.30
2018-02-17T03:33:27.155Z,19.63
2018-02-17T03:35:55.382Z,20.30
2018-02-17T03:38:22.898Z,20.73
2018-02-17T03:40:50.358Z,18.17
2018-02-17T03:43:17.835Z,18.90
2018-02-17T03:45:45.317Z,18.30
2018-02-17T03:48:12.830Z,18.30
2018-02-17T03:50:40.321Z,16.40
2018-02-17T03:53:07.806Z,17.27
2018-02-17T03:55:36.056Z,15.03
2018-02-17T03:58:03.523Z,16.60
2018-02-17T04:00:31.009Z,14.97
2018-02-17T04:02:58.487Z,14.10
2018-02-17T04:05:26.735Z,14.83
2018-02-17T04:07:54.198Z,16.27
2018-02-17T04:10:21.805Z,13.27
2018-02-17T04:12:49.452Z,16.50
2018-02-17T04:15:17.693Z,15.50
2018-02-17T04:17:45.174Z,13.97
2018-02-17T04:20:13.413Z,13.67
2018-02-17T04:22:40.882Z,14.50
2018-02-17T04:25:08.358Z,15.40
2018-02-17T04:27:36.598Z,14.03
2018-02-17T04:30:04.085Z,16.47
2018-02-17T04:32:31.678Z,16.83
2018-02-17T04:34:59.155Z,17.87
2018-02-17T04:37:26.646Z,16.70
2018-02-17T04:42:57.765Z,16.23
2018-02-17T04:45:25.243Z,15.73
2018-02-17T04:50:56.986Z,15.73
2018-02-17T04:53:30.132Z,13.80
2018-02-17T04:56:01.358Z,17.87
2018-02-17T04:58:40.722Z,16.00
2018-02-17T05:04:29.247Z,15.20
2018-02-17T05:06:58.466Z,16.07
2018-02-17T05:09:25.980Z,16.60
2018-02-17T05:11:53.464Z,15.17
2018-02-17T05:14:21.770Z,15.97
2018-02-17T05:16:49.734Z,15.37
2018-02-17T05:19:27.934Z,14.90
2018-02-17T05:22:00.309Z,16.07
2018-02-17T05:24:42.688Z,15.47
2018-02-17T05:27:21.023Z,15.20
2018-02-17T05:29:48.529Z,15.40
2018-02-17T05:32:21.677Z,16.20
2018-02-17T05:34:50.725Z,16.07
2018-02-17T05:37:18.970Z,16.07
2018-02-17T05:39:49.963Z,16.07
2018-02-17T05:42:19.943Z,18.27
2018-02-17T05:48:02.060Z,20.10
2018-02-17T05:50:29.549Z,26.00
2018-02-17T05:52:57.018Z,29.67
2018-02-17T05:55:24.502Z,31.97
2018-02-17T05:57:51.979Z,28.40
2018-02-17T06:00:19.490Z,22.63
2018-02-17T06:02:46.966Z,19.83
2018-02-17T06:05:14.472Z,18.07
2018-02-17T06:07:41.966Z,18.00
2018-02-17T06:10:09.461Z,18.87
2018-02-17T06:12:37.440Z,18.23
2018-02-17T06:15:05.224Z,18.40
2018-02-17T06:17:32.722Z,20.37
2018-02-17T06:20:00.251Z,18.17
2018-02-17T06:22:28.510Z,25.80
2018-02-17T06:24:55.984Z,28.40
2018-02-17T06:27:24.271Z,28.23
2018-02-17T06:29:52.533Z,27.47
2018-02-17T06:32:20.038Z,22.53
2018-02-17T06:34:47.527Z,29.43
2018-02-17T06:37:15.022Z,28.13
2018-02-17T06:39:43.266Z,24.70
2018-02-17T06:42:10.759Z,21.60
2018-02-17T06:44:39.006Z,21.07
2018-02-17T06:47:06.526Z,19.87
2018-02-17T06:49:33.998Z,18.57
2018-02-17T06:52:01.499Z,17.93
2018-02-17T06:54:29.748Z,20.73
2018-02-17T06:56:57.278Z,21.20
2018-02-17T06:59:25.486Z,19.40
2018-02-17T07:01:52.963Z,22.30
2018-02-17T07:04:21.216Z,18.97
2018-02-17T07:06:48.762Z,20.47
2018-02-17T07:09:16.251Z,19.77
2018-02-17T07:11:43.790Z,22.07
2018-02-17T07:14:11.294Z,21.97
2018-02-17T07:16:39.528Z,21.93
2018-02-17T07:19:07.015Z,21.30
2018-02-17T07:21:34.496Z,21.17
2018-02-17T07:24:01.990Z,18.27
2018-02-17T07:26:29.482Z,20.67
2018-02-17T07:28:57.004Z,21.70
2018-02-17T07:31:25.226Z,19.63
2018-02-17T07:33:53.556Z,21.30
2018-02-17T07:36:21.096Z,20.37
2018-02-17T07:38:48.590Z,21.17
2018-02-17T07:41:16.115Z,19.60
2018-02-17T07:43:43.594Z,21.67
2018-02-17T07:46:11.084Z,21.40
2018-02-17T07:48:38.584Z,23.50
2018-02-17T07:51:06.098Z,22.00
2018-02-17T07:53:33.622Z,22.90
2018-02-17T07:56:01.520Z,21.60
2018-02-17T07:58:30.935Z,20.53
2018-02-17T08:00:58.994Z,22.13
2018-02-17T08:03:26.480Z,20.40
2018-02-17T08:05:54.725Z,22.83
2018-02-17T08:08:22.214Z,23.90
2018-02-17T08:10:49.794Z,21.07
2018-02-17T08:13:18.378Z,23.23
2018-02-17T08:15:46.717Z,23.30
2018-02-17T08:18:14.203Z,22.00
2018-02-17T08:20:42.442Z,21.77
2018-02-17T08:23:09.934Z,21.60
2018-02-17T08:25:38.210Z,19.97
2018-02-17T08:28:05.696Z,23.30
2018-02-17T08:30:33.843Z,21.33
2018-02-17T08:33:01.312Z,22.63
2018-02-17T08:35:30.825Z,21.03
2018-02-17T08:37:59.071Z,20.33
2018-02-17T08:40:26.802Z,21.93
2018-02-17T08:42:54.356Z,20.00
2018-02-17T08:45:21.821Z,20.20
2018-02-17T08:47:49.314Z,21.23
2018-02-17T08:50:16.803Z,22.23
2018-02-17T08:52:45.044Z,21.43
2018-02-17T08:55:12.521Z,19.47
2018-02-17T08:57:40.799Z,21.70
2018-02-17T09:00:09.055Z,17.90
2018-02-17T09:02:36.556Z,17.80
2018-02-17T09:05:04.073Z,19.47
2018-02-17T09:07:31.538Z,17.80
2018-02-17T09:10:01.213Z,17.10
2018-02-17T09:12:28.690Z,16.97
2018-02-17T09:14:56.187Z,20.53
2018-02-17T09:17:24.433Z,27.20
2018-02-17T09:19:51.926Z,34.03
2018-02-17T09:22:20.164Z,31.50
2018-02-17T09:24:47.646Z,24.93
2018-02-17T09:27:15.130Z,26.53
2018-02-17T09:29:42.607Z,21.13
2018-02-17T09:32:10.100Z,21.80
2018-02-17T09:34:37.576Z,20.43
2018-02-17T09:37:05.072Z,20.43
2018-02-17T09:39:32.553Z,20.40
2018-02-17T09:42:00.058Z,19.57
2018-02-17T09:44:27.533Z,19.80
2018-02-17T09:46:56.465Z,18.80
2018-02-17T09:49:23.944Z,17.57
2018-02-17T09:51:51.442Z,17.33
2018-02-17T09:54:19.713Z,17.83
2018-02-17T09:56:47.963Z,17.90
2018-02-17T09:59:15.513Z,17.97
2018-02-17T10:01:43.008Z,18.83
2018-02-17T10:04:11.297Z,17.17
2018-02-17T10:06:39.551Z,17.27
2018-02-17T10:09:07.042Z,17.87
2018-02-17T10:11:34.520Z,17.90
2018-02-17T10:14:02.005Z,16.77
2018-02-17T10:16:29.478Z,17.50
2018-02-17T10:18:57.471Z,17.37
2018-02-17T10:21:25.832Z,18.33
2018-02-17T10:23:53.362Z,16.97
2018-02-17T10:26:20.923Z,16.20
2018-02-17T10:28:48.409Z,17.30
2018-02-17T10:31:15.904Z,16.73
2018-02-17T10:33:43.386Z,19.03
2018-02-17T10:36:10.879Z,15.93
2018-02-17T10:38:38.351Z,18.07
2018-02-17T10:41:06.599Z,15.90
2018-02-17T10:43:34.886Z,17.50
2018-02-17T10:46:02.379Z,16.27
2018-02-17T10:48:30.619Z,16.60
2018-02-17T10:50:58.110Z,18.67
2018-02-17T10:53:26.365Z,16.90
2018-02-17T10:55:53.863Z,16.57
2018-02-17T10:58:21.350Z,16.43
2018-02-17T11:00:48.822Z,16.63
2018-02-17T11:03:16.325Z,16.13
2018-02-17T11:05:44.571Z,16.43
2018-02-17T11:08:12.122Z,16.80
2018-02-17T11:10:39.610Z,18.17
2018-02-17T11:13:07.921Z,18.30
2018-02-17T11:15:35.609Z,17.83
2018-02-17T11:18:03.207Z,14.87
2018-02-17T11:20:31.550Z,15.37
2018-02-17T11:22:59.036Z,16.63
2018-02-17T11:25:26.570Z,17.00
2018-02-17T11:27:54.068Z,17.77
2018-02-17T11:30:21.602Z,17.43
2018-02-17T11:32:49.074Z,15.83
2018-02-17T11:35:16.564Z,16.23
2018-02-17T11:37:44.045Z,15.20
2018-02-17T11:40:11.497Z,14.80
2018-02-17T11:42:39.018Z,14.70
2018-02-17T11:45:07.268Z,16.10
2018-02-17T11:47:34.742Z,14.77
2018-02-17T11:50:02.238Z,16.20
2018-02-17T11:52:29.714Z,15.17
2018-02-17T11:54:57.206Z,14.17
2018-02-17T11:57:24.686Z,14.67
2018-02-17T11:59:52.938Z,14.10
2018-02-17T12:02:20.440Z,14.83
2018-02-17T12:04:48.888Z,14.17
2018-02-17T12:07:16.467Z,16.17
2018-02-17T12:09:43.936Z,16.40
2018-02-17T12:12:12.190Z,16.73
2018-02-17T12:14:39.659Z,16.40
2018-02-17T12:17:07.909Z,15.03
2018-02-17T12:19:35.369Z,16.10
2018-02-17T12:22:03.019Z,16.27
2018-02-17T12:24:30.487Z,19.50
2018-02-17T12:26:57.966Z,14.67
2018-02-17T12:29:25.445Z,16.53
2018-02-17T12:31:53.691Z,16.07
2018-02-17T12:34:21.188Z,18.10
2018-02-17T12:36:48.644Z,15.87
2018-02-17T12:39:16.159Z,16.50
2018-02-17T12:41:43.642Z,17.40
2018-02-17T12:44:11.895Z,16.30
2018-02-17T12:46:39.386Z,15.20
2018-02-17T12:49:07.639Z,18.67
2018-02-17T12:51:35.112Z,16.17
2018-02-17T12:54:02.596Z,17.80
2018-02-17T12:56:30.071Z,17.10
2018-02-17T12:58:57.563Z,17.00
2018-02-17T13:01:25.030Z,14.27
2018-02-17T13:03:52.498Z,16.57
2018-02-17T13:06:19.990Z,16.20
2018-02-17T13:08:47.484Z,15.93
2018-02-17T13:11:15.013Z,16.40
2018-02-17T13:13:42.503Z,16.03
2018-02-17T13:16:09.978Z,14.43
2018-02-17T13:18:37.443Z,15.90
2018-02-17T13:21:04.951Z,15.63
2018-02-17T13:23:32.419Z,15.40
2018-02-17T13:25:59.908Z,14.17
2018-02-17T13:28:27.383Z,16.33
2018-02-17T13:30:54.862Z,15.13
2018-02-17T13:33:28.361Z,14.87
2018-02-17T13:35:55.879Z,16.50
2018-02-17T13:38:23.355Z,13.47
2018-02-17T13:40:50.852Z,14.93
2018-02-17T13:43:18.345Z,15.10
2018-02-17T13:45:45.833Z,15.30
2018-02-17T13:48:13.322Z,14.10
2018-02-17T13:50:40.808Z,12.20
2018-02-17T13:53:08.298Z,13.53
2018-02-17T13:55:35.757Z,16.40
2018-02-17T13:58:03.335Z,15.20
2018-02-17T14:00:30.816Z,13.67
2018-02-17T14:02:59.062Z,14.57
2018-02-17T14:05:26.535Z,15.17
2018-02-17T14:07:54.790Z,14.93
2018-02-17T14:10:22.260Z,15.43
2018-02-17T14:12:49.754Z,14.57
2018-02-17T14:15:17.282Z,17.10
2018-02-17T14:17:45.454Z,15.27
2018-02-17T14:20:12.942Z,15.27
2018-02-17T14:22:41.192Z,18.80
2018-02-17T14:25:08.710Z,16.43
2018-02-17T14:27:36.196Z,17.07
2018-02-17T14:30:03.748Z,16.83
2018-02-17T14:32:31.246Z,17.37
2018-02-17T14:34:58.777Z,18.13
2018-02-17T14:37:26.246Z,18.60
2018-02-17T14:39:53.795Z,15.67
2018-02-17T14:42:21.324Z,18.70
2018-02-17T14:44:48.828Z,18.37
2018-02-17T14:47:17.091Z,17.70
2018-02-17T14:49:44.584Z,19.57
2018-02-17T14:52:12.817Z,17.77
2018-02-17T14:54:40.304Z,17.23
2018-02-17T14:57:08.565Z,18.23
2018-02-17T14:59:36.024Z,17.40
2018-02-17T15:02:03.507Z,19.53
2018-02-17T15:04:31.758Z,17.13
2018-02-17T15:06:59.219Z,17.53
2018-02-17T15:09:26.707Z,17.40
2018-02-17T15:11:54.192Z,17.63
2018-02-17T15:14:21.707Z,16.13
2018-02-17T15:16:49.177Z,17.40
2018-02-17T15:19:17.416Z,16.17
2018-02-17T15:21:44.897Z,16.80
2018-02-17T15:24:12.358Z,15.83
2018-02-17T15:26:39.846Z,19.83
2018-02-17T15:29:07.371Z,17.03
2018-02-17T15:31:34.846Z,16.87
2018-02-17T15:34:03.086Z,15.70
2018-02-17T15:36:30.563Z,16.17
2018-02-17T15:38:58.049Z,17.77
2018-02-17T15:41:25.528Z,16.30
2018-02-17T15:43:53.012Z,16.40
2018-02-17T15:46:20.480Z,17.10
2018-02-17T15:48:47.970Z,16.40
2018-02-17T15:51:16.202Z,14.80
2018-02-17T15:53:43.689Z,14.43
2018-02-17T15:56:11.186Z,19.47
2018-02-17T15:58:38.682Z,15.30
2018-02-17T16:01:06.897Z,14.50
2018-02-17T16:03:35.259Z,16.53
2018-02-17T16:06:02.731Z,14.30
2018-02-17T16:08:31.054Z,16.07
2018-02-17T16:10:58.535Z,14.37
2018-02-17T16:13:26.028Z,15.47
2018-02-17T16:15:54.290Z,17.17
2018-02-17T16:18:21.759Z,14.50
2018-02-17T16:20:50.024Z,16.50
2018-02-17T16:23:17.482Z,16.30
2018-02-17T16:25:45.020Z,16.43
2018-02-17T16:28:13.266Z,16.70
2018-02-17T16:30:40.854Z,18.40
2018-02-17T16:33:08.328Z,16.03
2018-02-17T16:35:35.815Z,16.13
2018-02-17T16:38:04.067Z,16.93
2018-02-17T16:40:31.530Z,18.00
2018-02-17T16:42:59.081Z,18.60
2018-02-17T16:45:26.560Z,15.30
2018-02-17T16:47:54.094Z,17.77
2018-02-17T16:50:22.369Z,16.43
2018-02-17T16:52:49.854Z,16.87
2018-02-17T16:55:18.082Z,17.23
2018-02-17T16:57:45.562Z,17.13
2018-02-17T17:00:13.998Z,18.53
2018-02-17T17:02:41.502Z,18.20
2018-02-17T17:05:08.975Z,18.90
2018-02-17T17:07:36.529Z,20.03
2018-02-17T17:10:04.059Z,20.27
2018-02-17T17:12:31.539Z,20.33
2018-02-17T17:14:59.131Z,23.60
2018-02-17T17:17:26.608Z,24.00
2018-02-17T17:19:54.074Z,21.20
2018-02-17T17:22:21.559Z,19.90
2018-02-17T17:24:49.042Z,19.83
2018-02-17T17:27:16.516Z,22.57
2018-02-17T17:29:44.008Z,21.07
2018-02-17T17:32:13.331Z,21.10
2018-02-17T17:34:42.610Z,20.00
2018-02-17T17:37:11.100Z,22.30
2018-02-17T17:39:38.575Z,24.73
2018-02-17T17:42:06.037Z,27.03
2018-02-17T17:44:33.558Z,26.77
2018-02-17T17:47:01.029Z,25.70
2018-02-17T17:49:28.536Z,25.77
2018-02-17T17:51:56.008Z,25.83
2018-02-17T17:54:23.482Z,24.17
2018-02-17T17:56:51.803Z,24.50
2018-02-17T17:59:19.309Z,24.63
2018-02-17T18:01:47.559Z,31.60
2018-02-17T18:04:15.058Z,29.97
2018-02-17T18:06:43.301Z,28.37
2018-02-17T18:09:10.788Z,28.00
2018-02-17T18:11:39.023Z,30.03
2018-02-17T18:14:06.552Z,29.97
2018-02-17T18:16:34.057Z,28.83
2018-02-17T18:19:01.642Z,31.10
2018-02-17T18:21:29.880Z,27.97
2018-02-17T18:23:57.376Z,28.23
2018-02-17T18:26:24.879Z,30.13
2018-02-17T18:28:52.372Z,26.53
2018-02-17T18:31:20.712Z,26.37
2018-02-17T18:33:48.195Z,27.90
2018-02-17T18:36:15.669Z,27.90
2018-02-17T18:38:43.230Z,26.93
2018-02-17T18:41:10.702Z,28.83
2018-02-17T18:43:38.956Z,28.60
2018-02-17T18:46:07.978Z,27.67
2018-02-17T18:48:36.579Z,28.73
2018-02-17T18:51:04.054Z,28.03
2018-02-17T18:53:31.822Z,29.77
2018-02-17T18:55:59.336Z,31.80
2018-02-17T18:58:27.576Z,31.10
2018-02-17T19:00:55.053Z,29.70
2018-02-17T19:03:22.536Z,31.90
2018-02-17T19:05:50.795Z,31.70
2018-02-17T19:08:18.610Z,31.87
2018-02-17T19:10:46.306Z,33.50
2018-02-17T19:13:13.869Z,33.73
2018-02-17T19:15:41.410Z,35.70
2018-02-17T19:18:08.905Z,35.50
2018-02-17T19:20:36.448Z,31.50
2018-02-17T19:23:04.022Z,31.40
2018-02-17T19:25:31.512Z,33.63
2018-02-17T19:28:00.332Z,30.13
2018-02-17T19:30:27.866Z,34.50
2018-02-17T19:32:55.366Z,35.87
2018-02-17T19:35:23.123Z,40.20
2018-02-17T19:37:50.723Z,38.97
2018-02-17T19:40:18.203Z,38.50
2018-02-17T19:42:46.474Z,35.63
2018-02-17T19:45:14.842Z,36.13
2018-02-17T19:47:42.345Z,32.30
2018-02-17T19:50:09.838Z,32.63
2018-02-17T19:52:37.555Z,31.93
2018-02-17T19:55:05.062Z,32.60
2018-02-17T19:57:33.291Z,30.60
2018-02-17T20:00:01.733Z,32.30
2018-02-17T20:02:29.702Z,35.23
2018-02-17T20:04:58.362Z,33.23
2018-02-17T20:07:27.383Z,35.90
2018-02-17T20:09:54.956Z,34.47
2018-02-17T20:12:22.841Z,33.37
2018-02-17T20:14:51.230Z,31.33
2018-02-17T20:17:18.761Z,34.53
2018-02-17T20:19:46.329Z,33.90
2018-02-17T20:22:14.577Z,33.67
2018-02-17T20:24:42.051Z,32.77
2018-02-17T20:27:09.646Z,39.00
2018-02-17T20:29:37.198Z,36.77
2018-02-17T20:32:05.445Z,39.67
2018-02-17T20:34:32.959Z,38.10
2018-02-17T20:37:00.475Z,36.40
2018-02-17T20:39:29.239Z,35.17
2018-02-17T20:41:56.795Z,36.37
2018-02-17T20:44:24.400Z,39.23
2018-02-17T20:46:52.654Z,38.07
2018-02-17T20:49:20.143Z,38.90
2018-02-17T20:51:48.426Z,36.50
2018-02-17T20:54:15.909Z,41.10
2018-02-17T20:56:43.439Z,46.00
2018-02-17T20:59:10.947Z,41.73
2018-02-17T21:01:38.608Z,44.50
2018-02-17T21:04:06.109Z,42.80
2018-02-17T21:06:34.395Z,38.50
2018-02-17T21:09:01.907Z,39.80
2018-02-17T21:11:29.389Z,37.47
2018-02-17T21:13:57.653Z,36.80
2018-02-17T21:16:25.920Z,35.30
2018-02-17T21:18:53.506Z,37.30
2018-02-17T21:21:21.810Z,39.50
2018-02-17T21:23:50.873Z,42.10
2018-02-17T21:26:19.275Z,41.27
2018-02-17T21:28:47.095Z,37.20
2018-02-17T21:31:14.571Z,42.70
2018-02-17T21:33:44.610Z,41.10
2018-02-17T21:36:12.844Z,43.90
2018-02-17T21:38:40.332Z,38.70
2018-02-17T21:41:07.812Z,40.93
2018-02-17T21:43:35.287Z,46.50
2018-02-17T21:46:02.776Z,44.20
2018-02-17T21:48:31.412Z,40.83
2018-02-17T21:50:58.932Z,38.77
2018-02-17T21:53:26.407Z,38.80
2018-02-17T21:55:53.895Z,38.30
2018-02-17T21:58:21.376Z,42.27
2018-02-17T22:00:49.216Z,40.83
2018-02-17T22:03:17.466Z,39.00
2018-02-17T22:05:44.955Z,39.57
2018-02-17T22:08:12.427Z,40.53
2018-02-17T22:10:39.894Z,37.90
2018-02-17T22:13:07.393Z,38.10
2018-02-17T22:15:35.190Z,35.30
2018-02-17T22:18:03.426Z,37.77
2018-02-17T22:20:30.899Z,39.50
2018-02-17T22:22:58.380Z,37.93
2018-02-17T22:25:26.630Z,37.23
2018-02-17T22:27:54.113Z,32.00
2018-02-17T22:30:21.586Z,33.47
2018-02-17T22:32:49.129Z,31.27
2018-02-17T22:35:17.405Z,30.63
2018-02-17T22:37:45.076Z,29.60
2018-02-17T22:40:13.318Z,31.27
2018-02-17T22:42:40.811Z,28.63
2018-02-17T22:45:09.066Z,28.60
2018-02-17T22:47:36.565Z,27.50
2018-02-17T22:50:04.103Z,26.03
2018-02-17T22:52:31.568Z,29.73
2018-02-17T22:54:59.811Z,26.37
2018-02-17T22:57:27.311Z,26.10
2018-02-17T22:59:55.076Z,26.07
2018-02-17T23:02:22.596Z,25.87
2018-02-17T23:04:50.863Z,24.97
2018-02-17T23:07:18.341Z,26.13
2018-02-17T23:09:45.832Z,25.83
2018-02-17T23:12:13.366Z,22.00
2018-02-17T23:14:40.806Z,23.53
2018-02-17T23:17:08.720Z,23.77
2018-02-17T23:19:36.193Z,24.70
2018-02-17T23:22:03.678Z,26.30
2018-02-17T23:24:31.171Z,22.73
2018-02-17T23:26:59.408Z,24.20
2018-02-17T23:29:26.895Z,22.90
2018-02-17T23:31:54.367Z,24.10
2018-02-17T23:34:22.615Z,22.50
2018-02-17T23:36:50.132Z,21.20
2018-02-17T23:39:17.908Z,23.30
2018-02-17T23:41:45.401Z,22.57
2018-02-17T23:44:12.895Z,20.67
2018-02-17T23:46:41.129Z,20.30
2018-02-17T23:49:08.600Z,21.63
2018-02-17T23:51:36.074Z,19.33
2018-02-17T23:54:04.325Z,21.33
2018-02-17T23:56:31.809Z,18.87
2018-02-17T23:59:00.512Z,19.00
